createdAt,value
2019-05-13T00:01:25.993Z,34.99
2019-05-13T00:05:44.466Z,35.05
2019-05-13T00:08:15.816Z,35.14
2019-05-13T00:10:45.036Z,35.14
2019-05-13T00:13:14.920Z,35.04
2019-05-13T00:15:44.862Z,35.16
2019-05-13T00:18:14.588Z,35.41
2019-05-13T00:20:44.527Z,35.42
2019-05-13T00:23:14.548Z,35.48
2019-05-13T00:25:44.393Z,35.53
2019-05-13T00:28:14.394Z,35.43
2019-05-13T00:30:44.448Z,35.52
2019-05-13T00:33:14.151Z,35.43
2019-05-13T00:35:44.436Z,35.43
2019-05-13T00:38:14.088Z,35.28
2019-05-13T00:40:44.430Z,34.89
2019-05-13T00:43:14.312Z,35.21
2019-05-13T00:46:37.144Z,35.54
2019-05-13T00:49:07.763Z,35.29
2019-05-13T00:51:37.032Z,35.29
2019-05-13T00:54:07.035Z,35.33
2019-05-13T00:56:36.750Z,35.04
2019-05-13T00:59:06.022Z,35.08
2019-05-13T01:01:34.244Z,35.08
2019-05-13T01:04:03.862Z,35.20
2019-05-13T01:06:33.935Z,35.20
2019-05-13T01:09:04.156Z,35.09
2019-05-13T01:11:34.362Z,35.27
2019-05-13T01:14:04.237Z,35.27
2019-05-13T01:16:34.061Z,35.27
2019-05-13T01:19:04.198Z,35.32
2019-05-13T01:21:34.510Z,35.38
2019-05-13T01:24:03.864Z,35.31
2019-05-13T01:26:33.711Z,35.31
2019-05-13T01:29:04.139Z,35.26
2019-05-13T01:31:34.522Z,35.12
2019-05-13T01:34:04.023Z,35.29
2019-05-13T01:36:34.613Z,35.11
2019-05-13T01:39:06.951Z,34.97
2019-05-13T01:41:35.651Z,34.97
2019-05-13T01:44:21.397Z,35.08
2019-05-13T01:46:50.412Z,35.08
2019-05-13T01:49:20.670Z,35.20
2019-05-13T01:51:50.107Z,35.22
2019-05-13T01:54:18.862Z,35.28
2019-05-13T01:56:49.138Z,35.26
2019-05-13T01:59:18.719Z,35.39
2019-05-13T02:03:39.452Z,35.47
2019-05-13T02:06:07.384Z,35.47
2019-05-13T02:08:36.789Z,35.34
2019-05-13T02:11:04.692Z,35.34
2019-05-13T02:13:34.447Z,35.21
2019-05-13T02:16:04.109Z,35.21
2019-05-13T02:18:34.124Z,35.43
2019-05-13T02:21:05.157Z,35.01
2019-05-13T02:23:34.144Z,34.96
2019-05-13T02:26:04.494Z,35.03
2019-05-13T02:28:33.381Z,34.98
2019-05-13T02:31:01.105Z,35.00
2019-05-13T02:33:28.319Z,35.36
2019-05-13T02:35:55.580Z,35.54
2019-05-13T02:38:29.473Z,35.50
2019-05-13T02:40:52.916Z,35.55
2019-05-13T02:43:23.210Z,35.55
2019-05-13T02:45:53.249Z,35.49
2019-05-13T02:48:23.284Z,35.62
2019-05-13T02:52:24.669Z,35.61
2019-05-13T02:54:52.946Z,35.61
2019-05-13T02:57:23.311Z,35.67
2019-05-13T02:59:52.810Z,35.62
2019-05-13T03:02:22.411Z,35.67
2019-05-13T03:04:55.638Z,35.67
2019-05-13T03:07:23.604Z,35.60
2019-05-13T03:09:52.644Z,35.36
2019-05-13T03:12:23.153Z,35.39
2019-05-13T03:14:53.267Z,35.24
2019-05-13T03:17:26.721Z,35.45
2019-05-13T03:19:54.435Z,35.43
2019-05-13T03:22:22.699Z,35.53
2019-05-13T03:24:52.322Z,35.67
2019-05-13T03:30:04.202Z,35.70
2019-05-13T03:32:42.200Z,35.64
2019-05-13T03:35:06.047Z,35.63
2019-05-13T03:37:34.696Z,35.76
2019-05-13T03:40:03.291Z,35.72
2019-05-13T03:42:33.448Z,35.54
2019-05-13T03:45:03.445Z,35.29
2019-05-13T03:47:32.938Z,35.53
2019-05-13T03:50:03.829Z,35.15
2019-05-13T03:52:33.841Z,35.52
2019-05-13T03:55:03.122Z,35.42
2019-05-13T03:57:33.936Z,35.42
2019-05-13T04:00:03.965Z,35.41
2019-05-13T04:02:33.505Z,35.56
2019-05-13T04:06:48.029Z,35.57
2019-05-13T04:09:26.355Z,35.72
2019-05-13T04:11:47.638Z,35.72
2019-05-13T04:14:17.219Z,35.44
2019-05-13T04:16:46.297Z,35.44
2019-05-13T04:19:15.224Z,35.65
2019-05-13T04:21:44.822Z,35.18
2019-05-13T04:24:12.929Z,35.18
2019-05-13T04:26:43.242Z,35.56
2019-05-13T04:29:13.607Z,35.69
2019-05-13T04:31:42.557Z,35.69
2019-05-13T04:34:12.869Z,35.32
2019-05-13T04:36:43.648Z,35.32
2019-05-13T04:39:13.162Z,35.60
2019-05-13T04:41:42.578Z,35.57
2019-05-13T04:44:13.088Z,35.59
2019-05-13T04:46:43.532Z,35.59
2019-05-13T04:49:12.917Z,35.61
2019-05-13T04:51:42.087Z,35.55
2019-05-13T04:54:13.064Z,35.58
2019-05-13T04:57:24.214Z,35.63
2019-05-13T04:59:54.977Z,35.63
2019-05-13T05:02:54.481Z,35.45
2019-05-13T05:06:04.205Z,35.24
2019-05-13T05:09:12.622Z,35.70
2019-05-13T05:12:24.643Z,35.51
2019-05-13T05:15:52.797Z,35.93
2019-05-13T05:19:32.094Z,36.01
2019-05-13T05:22:51.261Z,35.76
2019-05-13T05:26:01.151Z,35.96
2019-05-13T05:29:11.246Z,35.83
2019-05-13T05:32:01.331Z,36.52
2019-05-13T05:35:14.055Z,36.22
2019-05-13T05:38:43.739Z,37.19
2019-05-13T05:41:15.588Z,37.19
2019-05-13T05:43:45.406Z,37.05
2019-05-13T05:46:12.673Z,36.96
2019-05-13T05:48:42.003Z,37.10
2019-05-13T05:51:09.468Z,37.04
2019-05-13T05:53:36.768Z,36.96
2019-05-13T05:56:03.648Z,36.97
2019-05-13T05:58:31.652Z,37.13
2019-05-13T06:00:59.569Z,37.02
2019-05-13T06:03:27.445Z,36.99
2019-05-13T06:05:54.884Z,36.97
2019-05-13T06:08:22.400Z,37.17
2019-05-13T06:10:53.658Z,37.17
2019-05-13T06:13:21.522Z,36.89
2019-05-13T06:15:51.242Z,36.92
2019-05-13T06:18:18.356Z,36.90
2019-05-13T06:20:46.486Z,36.89
2019-05-13T06:23:14.565Z,36.81
2019-05-13T06:25:42.864Z,36.61
2019-05-13T06:28:12.371Z,36.61
2019-05-13T06:30:41.571Z,36.49
2019-05-13T06:33:12.010Z,34.77
2019-05-13T06:35:42.587Z,33.35
2019-05-13T06:38:09.096Z,31.57
2019-05-13T06:40:36.474Z,31.77
2019-05-13T06:43:03.780Z,32.21
2019-05-13T06:47:17.254Z,32.83
2019-05-13T06:49:44.505Z,33.05
2019-05-13T06:52:12.244Z,33.19
2019-05-13T06:54:41.845Z,33.43
2019-05-13T06:57:13.102Z,33.49
2019-05-13T06:59:42.018Z,33.70
2019-05-13T07:02:12.206Z,33.61
2019-05-13T07:04:41.536Z,33.74
2019-05-13T07:07:14.036Z,33.73
2019-05-13T07:09:38.775Z,33.90
2019-05-13T07:12:05.695Z,33.90
2019-05-13T07:14:33.413Z,33.94
2019-05-13T07:17:01.972Z,34.06
2019-05-13T07:19:31.945Z,34.03
2019-05-13T07:21:58.866Z,33.98
2019-05-13T07:24:27.429Z,33.93
2019-05-13T07:26:55.344Z,33.93
2019-05-13T07:29:24.296Z,33.98
2019-05-13T07:31:52.436Z,34.12
2019-05-13T07:34:24.508Z,34.01
2019-05-13T07:36:51.291Z,34.00
2019-05-13T07:39:19.249Z,34.06
2019-05-13T07:41:47.073Z,33.85
2019-05-13T07:44:14.724Z,34.73
2019-05-13T07:46:42.913Z,35.45
2019-05-13T07:49:11.975Z,35.73
2019-05-13T07:51:42.055Z,35.38
2019-05-13T07:54:11.398Z,34.46
2019-05-13T07:56:39.446Z,34.50
2019-05-13T07:59:07.372Z,33.39
2019-05-13T08:01:37.615Z,33.31
2019-05-13T08:04:05.416Z,33.64
2019-05-13T08:06:32.955Z,33.76
2019-05-13T08:09:01.876Z,33.76
2019-05-13T08:11:34.956Z,33.83
2019-05-13T08:14:01.798Z,33.87
2019-05-13T08:16:32.126Z,33.79
2019-05-13T08:18:58.869Z,33.61
2019-05-13T08:21:27.374Z,33.84
2019-05-13T08:23:56.073Z,33.88
2019-05-13T08:26:23.912Z,33.88
2019-05-13T08:29:00.293Z,33.82
2019-05-13T08:31:21.638Z,33.82
2019-05-13T08:33:51.859Z,33.57
2019-05-13T08:36:18.890Z,33.57
2019-05-13T08:38:46.249Z,33.21
2019-05-13T08:41:18.955Z,33.21
2019-05-13T08:43:42.750Z,33.07
2019-05-13T08:46:12.341Z,33.61
2019-05-13T08:48:39.373Z,33.63
2019-05-13T08:51:06.607Z,33.11
2019-05-13T08:53:34.430Z,32.04
2019-05-13T08:56:01.953Z,33.58
2019-05-13T08:58:31.988Z,33.47
2019-05-13T09:01:02.275Z,33.45
2019-05-13T09:03:32.307Z,33.41
2019-05-13T09:05:59.329Z,33.38
2019-05-13T09:08:26.649Z,33.34
2019-05-13T09:10:56.764Z,33.37
2019-05-13T09:13:23.712Z,33.30
2019-05-13T09:15:51.637Z,33.33
2019-05-13T09:18:19.255Z,33.34
2019-05-13T09:20:47.601Z,32.65
2019-05-13T09:23:15.406Z,33.29
2019-05-13T09:25:43.453Z,33.20
2019-05-13T09:28:12.473Z,33.23
2019-05-13T09:30:42.367Z,33.28
2019-05-13T09:33:11.567Z,33.11
2019-05-13T09:35:38.876Z,33.09
2019-05-13T09:38:06.455Z,32.88
2019-05-13T09:40:34.475Z,32.88
2019-05-13T09:43:02.631Z,32.77
2019-05-13T09:45:32.183Z,32.69
2019-05-13T09:48:01.605Z,32.63
2019-05-13T09:50:35.755Z,32.59
2019-05-13T09:53:02.753Z,32.61
2019-05-13T09:55:32.554Z,32.71
2019-05-13T09:58:02.424Z,32.76
2019-05-13T10:00:32.307Z,32.66
2019-05-13T10:03:02.203Z,32.65
2019-05-13T10:05:31.690Z,32.63
2019-05-13T10:08:02.509Z,32.61
2019-05-13T10:10:31.861Z,32.22
2019-05-13T10:13:09.323Z,32.46
2019-05-13T10:15:28.802Z,32.46
2019-05-13T10:17:56.346Z,32.60
2019-05-13T10:20:43.248Z,32.50
2019-05-13T10:23:12.595Z,32.41
2019-05-13T10:25:40.382Z,32.28
2019-05-13T10:28:07.698Z,32.25
2019-05-13T10:30:34.981Z,32.20
2019-05-13T10:33:02.932Z,32.28
2019-05-13T10:35:31.707Z,31.91
2019-05-13T10:38:03.677Z,31.83
2019-05-13T10:40:31.958Z,31.24
2019-05-13T10:42:58.826Z,31.82
2019-05-13T10:45:28.249Z,32.00
2019-05-13T10:47:57.241Z,31.77
2019-05-13T10:50:27.725Z,32.08
2019-05-13T10:52:55.508Z,32.14
2019-05-13T10:55:23.430Z,32.02
2019-05-13T10:57:51.405Z,32.03
2019-05-13T11:00:36.523Z,32.04
2019-05-13T11:03:04.093Z,32.18
2019-05-13T11:05:32.703Z,32.22
2019-05-13T11:08:02.022Z,32.24
2019-05-13T11:10:32.610Z,32.24
2019-05-13T11:13:01.589Z,31.99
2019-05-13T11:15:32.713Z,32.24
2019-05-13T11:17:58.880Z,32.34
2019-05-13T11:20:26.245Z,31.18
2019-05-13T11:22:54.265Z,31.18
2019-05-13T11:25:21.863Z,27.72
2019-05-13T11:27:49.366Z,25.22
2019-05-13T11:30:16.857Z,25.40
2019-05-13T11:32:44.487Z,24.66
2019-05-13T11:35:13.008Z,24.66
2019-05-13T11:37:43.032Z,24.59
2019-05-13T11:40:11.968Z,24.43
2019-05-13T11:42:42.210Z,25.45
2019-05-13T11:45:11.519Z,25.51
2019-05-13T11:47:40.924Z,25.95
2019-05-13T11:50:11.506Z,26.44
2019-05-13T11:52:39.165Z,26.76
2019-05-13T11:55:07.799Z,27.10
2019-05-13T11:57:34.976Z,27.14
2019-05-13T12:00:03.862Z,27.70
2019-05-13T12:02:32.658Z,27.21
2019-05-13T12:05:03.894Z,27.21
2019-05-13T12:07:32.899Z,27.36
2019-05-13T12:10:02.648Z,27.24
2019-05-13T12:12:34.428Z,27.32
2019-05-13T12:15:22.377Z,27.61
2019-05-13T12:17:33.731Z,27.85
2019-05-13T12:20:03.008Z,27.87
2019-05-13T12:22:30.348Z,27.91
2019-05-13T12:24:57.604Z,28.12
2019-05-13T12:27:25.342Z,28.09
2019-05-13T12:29:53.194Z,28.11
2019-05-13T12:32:22.493Z,27.62
2019-05-13T12:34:52.612Z,27.21
2019-05-13T12:37:22.091Z,27.61
2019-05-13T12:39:49.648Z,27.39
2019-05-13T12:42:22.459Z,27.56
2019-05-13T12:45:04.015Z,27.52
2019-05-13T12:47:22.101Z,27.48
2019-05-13T12:49:49.742Z,27.40
2019-05-13T12:52:16.596Z,27.35
2019-05-13T12:54:44.709Z,27.32
2019-05-13T12:57:15.720Z,27.27
2019-05-13T12:59:43.555Z,27.41
2019-05-13T13:02:13.314Z,27.55
2019-05-13T13:05:06.915Z,27.59
2019-05-13T13:07:13.432Z,27.49
2019-05-13T13:09:42.513Z,27.73
2019-05-13T13:12:08.296Z,27.26
2019-05-13T13:14:39.431Z,27.54
2019-05-13T13:17:04.870Z,27.56
2019-05-13T13:19:33.974Z,26.78
2019-05-13T13:22:04.769Z,26.78
2019-05-13T13:24:31.907Z,26.96
2019-05-13T13:26:59.692Z,27.23
2019-05-13T13:29:26.975Z,27.42
2019-05-13T13:32:45.610Z,27.55
2019-05-13T13:35:14.981Z,27.59
2019-05-13T13:37:45.768Z,26.60
2019-05-13T13:40:12.588Z,26.52
2019-05-13T13:42:43.104Z,26.52
2019-05-13T13:45:09.238Z,26.17
2019-05-13T13:47:36.506Z,26.57
2019-05-13T13:50:05.022Z,26.16
2019-05-13T13:52:33.727Z,26.32
2019-05-13T13:55:04.436Z,26.99
2019-05-13T13:57:32.402Z,26.99
2019-05-13T14:02:36.542Z,26.78
2019-05-13T14:05:04.877Z,26.81
2019-05-13T14:07:35.851Z,27.37
2019-05-13T14:10:06.007Z,27.06
2019-05-13T14:12:32.392Z,27.26
2019-05-13T14:15:01.666Z,27.23
2019-05-13T14:17:28.387Z,27.19
2019-05-13T14:19:55.689Z,27.19
2019-05-13T14:22:22.704Z,27.54
2019-05-13T14:24:51.882Z,27.24
2019-05-13T14:27:22.248Z,27.08
2019-05-13T14:29:52.299Z,27.07
2019-05-13T14:32:19.034Z,26.80
2019-05-13T14:34:47.588Z,26.66
2019-05-13T14:37:15.790Z,26.74
2019-05-13T14:39:43.470Z,26.91
2019-05-13T14:42:11.625Z,26.92
2019-05-13T14:44:39.789Z,27.14
2019-05-13T14:47:07.015Z,27.14
2019-05-13T14:49:34.527Z,27.16
2019-05-13T14:52:02.977Z,27.00
2019-05-13T14:54:31.484Z,26.95
2019-05-13T14:56:59.365Z,26.86
2019-05-13T14:59:26.728Z,26.67
2019-05-13T15:01:53.733Z,26.63
2019-05-13T15:04:22.336Z,26.11
2019-05-13T15:06:50.002Z,25.63
2019-05-13T15:09:18.598Z,26.40
2019-05-13T15:11:46.238Z,26.55
2019-05-13T15:14:14.364Z,26.63
2019-05-13T15:16:42.606Z,26.76
2019-05-13T15:19:11.949Z,26.61
2019-05-13T15:21:41.244Z,26.62
2019-05-13T15:24:08.725Z,26.44
2019-05-13T15:26:35.698Z,26.69
2019-05-13T15:29:05.076Z,26.73
2019-05-13T15:31:32.949Z,26.91
2019-05-13T15:34:02.550Z,26.93
2019-05-13T15:36:31.521Z,26.93
2019-05-13T15:39:01.439Z,27.04
2019-05-13T15:41:29.896Z,26.91
2019-05-13T15:43:57.973Z,26.87
2019-05-13T15:46:25.788Z,26.45
2019-05-13T15:48:53.095Z,26.63
2019-05-13T15:51:22.128Z,27.34
2019-05-13T15:53:51.740Z,27.78
2019-05-13T15:56:22.421Z,27.80
2019-05-13T15:58:52.980Z,27.65
2019-05-13T16:01:22.983Z,27.12
2019-05-13T16:03:51.936Z,27.13
2019-05-13T16:06:19.417Z,27.35
2019-05-13T16:08:47.335Z,27.24
2019-05-13T16:11:18.837Z,27.18
2019-05-13T16:13:46.395Z,26.92
2019-05-13T16:16:13.860Z,26.52
2019-05-13T16:18:41.982Z,26.50
2019-05-13T16:21:12.078Z,26.25
2019-05-13T16:23:42.820Z,26.25
2019-05-13T16:26:11.663Z,25.93
2019-05-13T16:28:41.844Z,26.34
2019-05-13T16:31:11.798Z,26.04
2019-05-13T16:33:41.564Z,26.34
2019-05-13T16:36:08.979Z,26.30
2019-05-13T16:38:38.244Z,26.50
2019-05-13T16:41:06.492Z,26.69
2019-05-13T16:43:35.740Z,26.88
2019-05-13T16:46:06.863Z,27.12
2019-05-13T16:50:36.697Z,27.19
2019-05-13T16:53:03.609Z,27.33
2019-05-13T16:55:32.764Z,27.64
2019-05-13T16:58:02.015Z,27.75
2019-05-13T17:00:31.575Z,27.66
2019-05-13T17:03:02.313Z,27.40
2019-05-13T17:05:29.766Z,27.35
2019-05-13T17:07:58.356Z,27.90
2019-05-13T17:10:26.401Z,27.00
2019-05-13T17:12:54.551Z,27.41
2019-05-13T17:15:21.770Z,27.50
2019-05-13T17:17:48.990Z,27.41
2019-05-13T17:20:16.262Z,27.64
2019-05-13T17:22:45.438Z,27.81
2019-05-13T17:25:13.404Z,27.90
2019-05-13T17:27:40.716Z,28.00
2019-05-13T17:30:07.988Z,28.18
2019-05-13T17:32:35.258Z,28.19
2019-05-13T17:35:02.978Z,28.33
2019-05-13T17:37:31.290Z,28.35
2019-05-13T17:40:01.158Z,28.35
2019-05-13T17:42:28.256Z,28.47
2019-05-13T17:45:37.503Z,27.32
2019-05-13T17:48:05.057Z,27.90
2019-05-13T17:50:33.330Z,28.70
2019-05-13T17:53:02.162Z,28.57
2019-05-13T17:55:29.502Z,28.52
2019-05-13T17:57:56.767Z,28.89
2019-05-13T18:00:25.038Z,28.98
2019-05-13T18:02:52.711Z,29.13
2019-05-13T18:05:22.357Z,29.09
2019-05-13T18:07:52.335Z,29.21
2019-05-13T18:10:19.614Z,29.35
2019-05-13T18:12:46.869Z,29.43
2019-05-13T18:15:14.303Z,29.38
2019-05-13T18:17:41.929Z,29.38
2019-05-13T18:20:09.552Z,29.45
2019-05-13T18:22:38.041Z,29.19
2019-05-13T18:25:05.619Z,29.41
2019-05-13T18:27:33.579Z,29.50
2019-05-13T18:30:02.249Z,29.41
2019-05-13T18:32:31.784Z,29.31
2019-05-13T18:35:01.667Z,29.46
2019-05-13T18:37:31.693Z,30.38
2019-05-13T18:40:02.326Z,30.38
2019-05-13T18:42:31.561Z,29.80
2019-05-13T18:45:01.930Z,30.01
2019-05-13T18:47:31.642Z,30.12
2019-05-13T18:50:02.170Z,30.17
2019-05-13T18:52:31.292Z,29.60
2019-05-13T18:55:01.843Z,29.60
2019-05-13T18:57:31.729Z,30.05
2019-05-13T19:00:02.100Z,29.88
2019-05-13T19:02:31.888Z,29.94
2019-05-13T19:05:01.477Z,30.04
2019-05-13T19:07:31.369Z,30.02
2019-05-13T19:09:59.355Z,30.15
2019-05-13T19:12:27.948Z,30.12
2019-05-13T19:14:55.902Z,30.16
2019-05-13T19:17:23.261Z,29.95
2019-05-13T19:19:51.446Z,30.29
2019-05-13T19:22:20.837Z,30.12
2019-05-13T19:24:47.609Z,30.04
2019-05-13T19:27:16.029Z,30.01
2019-05-13T19:29:46.410Z,29.84
2019-05-13T19:32:14.059Z,29.75
2019-05-13T19:34:42.354Z,30.07
2019-05-13T19:37:11.544Z,30.11
2019-05-13T19:39:39.249Z,29.90
2019-05-13T19:42:06.705Z,29.90
2019-05-13T19:44:33.610Z,30.22
2019-05-13T19:47:01.924Z,30.35
2019-05-13T19:49:36.679Z,30.05
2019-05-13T19:52:02.171Z,30.41
2019-05-13T19:54:31.443Z,30.47
2019-05-13T19:57:01.176Z,30.49
2019-05-13T19:59:29.463Z,30.53
2019-05-13T20:01:57.535Z,30.61
2019-05-13T20:04:25.262Z,30.67
2019-05-13T20:06:53.755Z,30.72
2019-05-13T20:09:21.490Z,30.76
2019-05-13T20:11:54.978Z,30.50
2019-05-13T20:14:18.957Z,30.42
2019-05-13T20:16:46.842Z,30.42
2019-05-13T20:19:14.507Z,30.40
2019-05-13T20:21:42.669Z,30.40
2019-05-13T20:24:11.749Z,31.07
2019-05-13T20:26:38.768Z,30.91
2019-05-13T20:29:05.795Z,31.01
2019-05-13T20:31:33.257Z,31.01
2019-05-13T20:34:01.699Z,31.07
2019-05-13T20:36:31.378Z,31.39
2019-05-13T20:38:59.378Z,31.49
2019-05-13T20:41:27.443Z,31.46
2019-05-13T20:43:55.497Z,31.51
2019-05-13T20:46:23.433Z,31.58
2019-05-13T20:48:51.946Z,31.56
2019-05-13T20:51:22.008Z,31.36
2019-05-13T20:53:51.625Z,31.46
2019-05-13T20:56:21.439Z,31.55
2019-05-13T20:58:51.538Z,31.61
2019-05-13T21:01:19.995Z,31.56
2019-05-13T21:03:47.411Z,31.50
2019-05-13T21:06:15.457Z,31.77
2019-05-13T21:08:42.744Z,31.79
2019-05-13T21:11:11.479Z,31.81
2019-05-13T21:13:41.181Z,31.89
2019-05-13T21:16:11.233Z,31.88
2019-05-13T21:18:42.206Z,31.82
2019-05-13T21:21:11.632Z,31.79
2019-05-13T21:23:41.537Z,31.83
2019-05-13T21:26:11.901Z,32.17
2019-05-13T21:28:41.713Z,32.08
2019-05-13T21:31:08.800Z,31.95
2019-05-13T21:33:37.359Z,31.94
2019-05-13T21:36:04.615Z,31.70
2019-05-13T21:38:32.927Z,31.87
2019-05-13T21:41:00.837Z,31.44
2019-05-13T21:43:28.279Z,31.86
2019-05-13T21:45:55.611Z,31.92
2019-05-13T21:48:23.031Z,32.13
2019-05-13T21:50:51.758Z,32.14
2019-05-13T21:53:24.194Z,32.98
2019-05-13T21:55:51.865Z,32.98
2019-05-13T21:58:22.018Z,32.68
2019-05-13T22:00:51.875Z,32.36
2019-05-13T22:03:19.723Z,32.64
2019-05-13T22:05:48.536Z,32.94
2019-05-13T22:08:15.622Z,33.27
2019-05-13T22:10:43.931Z,32.83
2019-05-13T22:13:11.991Z,32.79
2019-05-13T22:15:41.615Z,32.79
2019-05-13T22:18:11.295Z,32.74
2019-05-13T22:20:48.980Z,32.54
2019-05-13T22:23:08.618Z,32.51
2019-05-13T22:25:43.787Z,32.58
2019-05-13T22:28:11.976Z,32.41
2019-05-13T22:30:41.220Z,32.26
2019-05-13T22:33:08.839Z,32.15
2019-05-13T22:35:36.457Z,32.28
2019-05-13T22:42:33.505Z,32.21
2019-05-13T22:45:02.909Z,32.29
2019-05-13T22:47:31.493Z,32.28
2019-05-13T22:50:01.750Z,32.32
2019-05-13T22:52:31.290Z,32.39
2019-05-13T22:55:02.452Z,32.26
2019-05-13T22:57:31.773Z,31.89
2019-05-13T23:00:00.615Z,32.29
2019-05-13T23:02:28.749Z,32.29
2019-05-13T23:04:56.866Z,32.02
2019-05-13T23:07:24.747Z,31.80
2019-05-13T23:09:53.243Z,32.08
2019-05-13T23:12:21.315Z,32.35
2019-05-13T23:14:48.876Z,32.44
2019-05-13T23:17:16.889Z,32.47
2019-05-13T23:19:44.739Z,32.51
2019-05-13T23:22:13.835Z,32.59
2019-05-13T23:24:43.506Z,32.50
2019-05-13T23:27:12.980Z,32.61
2019-05-13T23:29:42.266Z,32.67
2019-05-13T23:32:12.164Z,32.75
2019-05-13T23:34:42.254Z,32.45
2019-05-13T23:37:11.355Z,32.37
2019-05-13T23:39:42.053Z,32.44
2019-05-13T23:42:12.250Z,32.46
2019-05-13T23:44:41.687Z,32.40
2019-05-13T23:47:11.674Z,32.32
2019-05-13T23:49:42.157Z,32.32
2019-05-13T23:52:11.736Z,32.63
2019-05-13T23:54:42.533Z,32.82
2019-05-13T23:57:11.875Z,32.95
2019-05-13T23:59:42.247Z,32.82
